createdAt,value
2022-08-05T00:04:20.600Z,99.90
2022-08-05T00:11:28.021Z,99.90
2022-08-05T00:18:31.387Z,99.90
2022-08-05T00:25:45.968Z,99.90
2022-08-05T00:32:57.801Z,99.90
2022-08-05T00:39:59.322Z,99.90
2022-08-05T00:47:02.196Z,99.90
2022-08-05T00:54:05.948Z,99.90
2022-08-05T01:01:08.900Z,99.90
2022-08-05T01:08:40.291Z,99.90
2022-08-05T01:15:36.820Z,99.90
2022-08-05T01:23:23.199Z,99.90
2022-08-05T01:30:33.845Z,99.90
2022-08-05T01:37:49.665Z,99.90
2022-08-05T01:44:54.078Z,99.90
2022-08-05T01:52:01.839Z,99.90
2022-08-05T01:59:21.955Z,99.90
2022-08-05T02:06:38.140Z,99.90
2022-08-05T02:13:53.879Z,99.90
2022-08-05T02:21:02.373Z,99.90
2022-08-05T02:28:08.586Z,99.90
2022-08-05T02:35:19.006Z,99.90
2022-08-05T02:42:27.559Z,99.90
2022-08-05T02:49:41.704Z,99.90
2022-08-05T02:56:46.054Z,99.90
2022-08-05T03:04:02.230Z,99.90
2022-08-05T03:11:55.827Z,99.90
2022-08-05T03:18:29.977Z,99.90
2022-08-05T03:26:04.461Z,99.90
2022-08-05T03:32:51.862Z,99.90
2022-08-05T03:39:59.327Z,99.90
2022-08-05T03:47:03.517Z,99.90
2022-08-05T03:55:53.955Z,99.90
2022-08-05T04:01:32.300Z,99.90
2022-08-05T04:08:36.832Z,99.90
2022-08-05T04:15:37.718Z,99.90
2022-08-05T04:22:38.188Z,99.90
2022-08-05T04:29:41.432Z,99.90
2022-08-05T04:36:45.713Z,99.90
2022-08-05T04:43:52.842Z,99.90
2022-08-05T04:51:02.632Z,99.90
2022-08-05T04:58:21.549Z,99.90
2022-08-05T05:05:28.654Z,99.90
2022-08-05T05:12:29.451Z,99.90
2022-08-05T05:19:36.947Z,99.90
2022-08-05T05:26:46.437Z,99.90
2022-08-05T05:33:59.575Z,99.90
2022-08-05T05:41:02.165Z,99.90
2022-08-05T05:48:05.229Z,99.90
2022-08-05T05:55:13.235Z,99.90
2022-08-05T06:02:14.232Z,99.90
2022-08-05T06:09:26.700Z,99.90
2022-08-05T06:16:37.657Z,99.90
2022-08-05T06:23:44.164Z,99.90
2022-08-05T06:30:44.947Z,99.90
2022-08-05T06:37:56.301Z,99.90
2022-08-05T06:44:59.477Z,99.90
2022-08-05T06:52:06.017Z,99.90
2022-08-05T06:59:09.474Z,99.90
2022-08-05T07:06:15.117Z,99.90
2022-08-05T07:13:58.179Z,99.90
2022-08-05T07:20:54.662Z,99.90
2022-08-05T07:27:59.491Z,99.90
2022-08-05T07:36:02.519Z,99.90
2022-08-05T07:42:31.704Z,99.90
2022-08-05T07:49:34.867Z,99.90
2022-08-05T07:57:13.283Z,99.90
2022-08-05T08:04:05.078Z,99.90
2022-08-05T08:11:08.951Z,99.90
2022-08-05T08:18:14.394Z,99.90
2022-08-05T08:25:17.870Z,99.90
2022-08-05T08:32:28.414Z,99.90
2022-08-05T08:39:28.872Z,99.90
2022-08-05T08:46:31.591Z,99.90
2022-08-05T08:53:38.043Z,99.90
2022-08-05T09:00:46.367Z,99.90
2022-08-05T09:07:57.561Z,99.90
2022-08-05T09:15:05.777Z,99.90
2022-08-05T09:22:31.218Z,99.90
2022-08-05T09:29:47.928Z,99.90
2022-08-05T09:36:55.897Z,99.90
2022-08-05T09:43:59.849Z,99.90
2022-08-05T09:51:01.386Z,99.90
2022-08-05T09:58:14.591Z,99.90
2022-08-05T10:05:29.209Z,99.90
2022-08-05T10:12:51.739Z,99.90
2022-08-05T10:20:04.058Z,99.90
2022-08-05T10:27:13.566Z,99.90
2022-08-05T10:34:17.399Z,99.90
2022-08-05T10:41:46.580Z,99.90
2022-08-05T10:48:56.629Z,99.90
2022-08-05T10:56:21.530Z,99.90
2022-08-05T11:03:27.408Z,99.90
2022-08-05T11:10:29.331Z,99.90
2022-08-05T11:17:59.587Z,99.90
2022-08-05T11:26:05.103Z,99.90
2022-08-05T11:33:25.147Z,99.90
2022-08-05T11:41:56.267Z,99.90
2022-08-05T11:48:41.473Z,99.90
2022-08-05T11:55:56.466Z,99.90
2022-08-05T12:02:56.749Z,99.90
2022-08-05T12:10:04.419Z,99.90
2022-08-05T12:18:04.073Z,99.90
2022-08-05T12:24:41.689Z,99.90
2022-08-05T12:31:57.020Z,99.90
2022-08-05T12:38:59.016Z,99.90
2022-08-05T12:45:59.250Z,99.90
2022-08-05T12:52:59.942Z,99.90
2022-08-05T13:01:57.718Z,99.90
2022-08-05T13:07:55.001Z,99.90
2022-08-05T13:14:43.628Z,99.90
2022-08-05T13:21:47.912Z,99.90
2022-08-05T13:28:52.589Z,99.90
2022-08-05T13:35:54.703Z,99.90
2022-08-05T13:43:02.442Z,99.90
2022-08-05T13:50:08.148Z,99.90
2022-08-05T13:57:12.864Z,99.90
2022-08-05T14:04:34.193Z,99.90
2022-08-05T14:12:04.353Z,99.90
2022-08-05T14:19:04.496Z,99.90
2022-08-05T14:26:05.026Z,99.90
2022-08-05T14:33:09.782Z,99.90
2022-08-05T14:40:17.203Z,99.90
2022-08-05T14:47:58.409Z,99.90
2022-08-05T14:54:38.829Z,99.90
2022-08-05T15:01:53.813Z,99.90
2022-08-05T15:09:01.161Z,99.90
2022-08-05T15:16:04.682Z,99.90
2022-08-05T15:23:06.757Z,99.90
2022-08-05T15:30:10.909Z,99.90
2022-08-05T15:37:17.229Z,99.90
2022-08-05T15:44:21.538Z,99.90
2022-08-05T15:52:04.118Z,99.90
2022-08-05T15:58:50.130Z,99.90
2022-08-05T16:05:52.738Z,99.90
2022-08-05T16:12:58.411Z,99.90
2022-08-05T16:20:03.079Z,99.90
2022-08-05T16:27:05.091Z,99.90
2022-08-05T16:34:07.738Z,99.90
2022-08-05T16:41:29.824Z,99.90
2022-08-05T16:48:35.260Z,99.90
2022-08-05T16:55:47.199Z,99.90
2022-08-05T17:02:50.218Z,99.90
2022-08-05T17:09:58.222Z,97.90
2022-08-05T17:16:59.773Z,97.60
2022-08-05T17:24:08.103Z,96.70
2022-08-05T17:31:24.658Z,96.40
2022-08-05T17:38:41.671Z,95.60
2022-08-05T17:45:44.302Z,94.60
2022-08-05T17:52:52.820Z,94.50
2022-08-05T18:00:05.307Z,95.00
2022-08-05T18:07:06.568Z,93.90
2022-08-05T18:14:20.482Z,92.90
2022-08-05T18:21:25.930Z,92.70
2022-08-05T18:28:28.377Z,92.30
2022-08-05T18:36:01.173Z,92.40
2022-08-05T18:42:52.720Z,92.30
2022-08-05T18:50:11.564Z,92.30
2022-08-05T18:57:15.537Z,92.80
2022-08-05T19:04:23.911Z,92.70
2022-08-05T19:11:28.511Z,92.70
2022-08-05T19:18:37.968Z,93.30
2022-08-05T19:25:42.050Z,93.60
2022-08-05T19:32:45.715Z,94.10
2022-08-05T19:39:50.997Z,94.60
2022-08-05T19:46:52.450Z,95.00
2022-08-05T19:54:05.280Z,95.40
2022-08-05T20:01:06.534Z,95.70
2022-08-05T20:08:06.890Z,96.20
2022-08-05T20:15:09.617Z,96.50
2022-08-05T20:22:10.301Z,96.90
2022-08-05T20:29:26.560Z,97.10
2022-08-05T20:36:27.939Z,97.40
2022-08-05T20:43:57.678Z,97.70
2022-08-05T20:50:49.718Z,98.20
2022-08-05T20:57:51.852Z,98.50
2022-08-05T21:04:57.410Z,98.90
2022-08-05T21:12:09.512Z,99.10
2022-08-05T21:19:11.833Z,99.50
2022-08-05T21:26:14.413Z,99.90
2022-08-05T21:33:22.576Z,99.90
2022-08-05T21:40:24.703Z,99.90
2022-08-05T21:47:54.863Z,99.90
2022-08-05T21:54:46.024Z,99.90
2022-08-05T22:01:54.521Z,99.90
2022-08-05T22:08:55.483Z,99.90
2022-08-05T22:16:05.105Z,99.90
2022-08-05T22:24:02.792Z,99.90
2022-08-05T22:30:55.946Z,99.90
2022-08-05T22:37:58.156Z,99.90
2022-08-05T22:44:59.874Z,99.90
2022-08-05T22:52:04.498Z,99.90
2022-08-05T22:59:43.664Z,99.90
2022-08-05T23:06:28.441Z,99.90
2022-08-05T23:13:29.478Z,99.90
2022-08-05T23:20:32.597Z,99.90
2022-08-05T23:27:42.434Z,99.90
2022-08-05T23:34:53.249Z,99.90
2022-08-05T23:41:56.477Z,99.90
2022-08-05T23:48:59.732Z,99.90
2022-08-05T23:56:01.887Z,99.90
